Yellow Mule RAWS (NWS)

Elevation
9200ft
Aggregated by Synoptic Data
Date/Time Wind Direction Wind Speed knots Wind Gust knots RH % Accumulated Precip Inches Air Temp Fahrenheit
2024-05-19 23:04 NNE 4 9 82 3.02 25
2024-05-19 22:04 NNE 3 8 80 3.02 25
2024-05-19 21:04 NNE 4 9 76 3.02 26
2024-05-19 20:04 NNW 3 13 48 3.02 30
2024-05-19 19:04 NW 7 13 49 3.02 31
2024-05-19 18:04 WNW 3 17 41 3.02 38
2024-05-19 17:04 WSW 9 17 40 3.02 34
2024-05-19 16:04 W 10 21 51 3.02 34
2024-05-19 15:04 SW 18 26 42 3.02 33
2024-05-19 14:04 SW 13 23 49 3.02 33
2024-05-19 13:04 WSW 13 20 60 3.02 31
2024-05-19 12:04 SW 16 22 73 3.02 28
2024-05-19 11:04 SW 10 17 65 3.02 32
2024-05-19 10:04 WSW 11 15 59 3.02 35
2024-05-19 09:04 SW 9 13 74 3.02 31
2024-05-19 08:04 WNW 3 17 83 3.02 30
2024-05-19 07:04 SSW 11 17 92 3.02 27
2024-05-19 06:04 SE 4 8 89 3.02 29
2024-05-19 05:04 SW 3 9 84 3.02 30
2024-05-19 04:04 S 6 16 75 3.02 31
2024-05-19 03:04 SSE 5 13 46 3.02 33
2024-05-19 02:04 S 8 18 44 3.02 34
2024-05-19 01:04 SSW 7 11 45 3.02 34
2024-05-19 00:04 SSW 8 10 45 3.02 35
2024-05-18 23:04 WSW 6 25 44 3.02 36
2024-05-18 22:04 SSW 14 30 42 3.02 38
2024-05-18 21:04 SSW 11 22 41 3.02 39
2024-05-18 20:04 S 13 27 39 3.02 39
2024-05-18 19:04 S 11 22 38 3.02 39
2024-05-18 18:04 S 14 27 41 3.02 39
2024-05-18 17:04 S 16 30 41 3.02 38
2024-05-18 16:04 SSE 16 29 39 3.02 38
2024-05-18 15:04 S 16 30 33 3.02 41
2024-05-18 14:04 S 12 22 33 3.02 39
2024-05-18 13:04 S 13 25 30 3.02 38
2024-05-18 12:04 SSW 17 27 30 3.02 37
2024-05-18 11:04 SSW 17 27 24 3.02 35
2024-05-18 10:04 S 12 20 26 3.02 36
2024-05-18 09:04 S 7 17 40 3.02 32
2024-05-18 08:04 S 7 14 49 3.02 24
2024-05-18 07:04 S 7 14 56 3.02 21
2024-05-18 06:04 S 7 14 62 3.02 18
2024-05-18 05:04 SSW 5 10 62 3.02 18
2024-05-18 04:04 NW 2 7 61 3.02 18
2024-05-18 03:04 W 3 10 57 3.02 19
2024-05-18 02:04 WNW 7 14 52 3.02 20
2024-05-18 01:04 W 10 21 52 3.02 20
2024-05-18 00:04 W 10 17 51 3.02 21
2024-05-17 23:04 WSW 10 25 52 3.02 21